Saint Michael, Minnesota
Current Conditions -  °F | °C
As of 9:34 AM on Friday 28 Nov 2014 (Local Time) from KCFE Reporting Station
Overcast Overcast  
Wind Chill:   Ceiling: 1900
Heat Index: 16°   Visibility: 10mi
Dew Point:   Wind: 7mph
Humidity: 76%   Direction: 80°E
Pressure: 29.98"   Gusts: NA
Location:  45.21°N, 93.66°W
Report Text: KCFE 281534Z AUTO 08006KT 10SM OVC019 M09/M13 A2998 RMK AO2 T10911126
Loading
Personal Weather Stations






























Interactive Weather Map New forecast layout! Learn more

10-Day Weather Forecast

Advertisements
Track Severe Weather on mobile